KTLH/TLH METAR and TAF weather

Enter ICAO airport designator
Station Type Date Time Source
KTLH METAR 2020/08/14 01:53 UTC NOAA

KTLH 140153Z 21003KT 10SM FEW060 27/25 A2999 RMK AO2 SLP154 T02720250 $


Station Type Date Time Source
KTLH Decoded METAR 2020/08/14 01:53 UTC NOAA

TALLAHASSEE REGIONAL AIRPORT , FL, United States (KTLH) 30-24N 84-21W 16M
Aug 13, 2020 - 09:53 PM EDT / 2020.08.14 0153 UTC
Wind: from the SSW (210 degrees) at 3 MPH (3 KT):0
Visibility: 10 mile(s):0
Sky conditions: mostly clear
Temperature: 81.0 F (27.2 C)
Dew Point: 77.0 F (25.0 C)
Relative Humidity: 87%
Pressure (altimeter): 29.99 in. Hg (1015 hPa)
ob: KTLH 140153Z 21003KT 10SM FEW060 27/25 A2999 RMK AO2 SLP154 T02720250
cycle: 2

Station Type Date Time Source
KTLH TAF 2020/08/13 18:22 UTC NOAA

TAF KTLH 131720Z 1318/1418 21006KT P6SM VCTS BKN050CB
TEMPO 1318/1320 VRB15G25KT 5SM TSRA BKN050CB
FM140000 00000KT P6SM SCT060 SCT120

Example: see airport list